sensor_id;sensor_type;location;lat;lon;timestamp;P1;P2;P0
77365;PMS5003;66430;50.182;11.704;2023-05-20T00:01:17;32;29;
77365;PMS5003;66430;50.182;11.704;2023-05-20T00:03:43;28;26;
77365;PMS5003;66430;50.182;11.704;2023-05-20T00:06:08;29;27;
77365;PMS5003;66430;50.182;11.704;2023-05-20T00:08:34;27;26;
77365;PMS5003;66430;50.182;11.704;2023-05-20T00:10:59;28;28;
77365;PMS5003;66430;50.182;11.704;2023-05-20T00:13:25;25;25;
77365;PMS5003;66430;50.182;11.704;2023-05-20T00:15:51;30;28;
77365;PMS5003;66430;50.182;11.704;2023-05-20T00:18:16;31;29;
77365;PMS5003;66430;50.182;11.704;2023-05-20T00:20:40;27;27;
77365;PMS5003;66430;50.182;11.704;2023-05-20T00:23:06;31;30;
77365;PMS5003;66430;50.182;11.704;2023-05-20T00:25:32;33;32;
77365;PMS5003;66430;50.182;11.704;2023-05-20T00:27:58;30;29;
77365;PMS5003;66430;50.182;11.704;2023-05-20T00:30:24;28;26;
77365;PMS5003;66430;50.182;11.704;2023-05-20T00:32:48;33;33;
77365;PMS5003;66430;50.182;11.704;2023-05-20T00:35:13;34;33;
77365;PMS5003;66430;50.182;11.704;2023-05-20T00:37:39;26;25;
77365;PMS5003;66430;50.182;11.704;2023-05-20T00:40:05;31;30;
77365;PMS5003;66430;50.182;11.704;2023-05-20T00:42:31;31;28;
77365;PMS5003;66430;50.182;11.704;2023-05-20T00:44:56;28;28;
77365;PMS5003;66430;50.182;11.704;2023-05-20T00:47:24;37;35;
77365;PMS5003;66430;50.182;11.704;2023-05-20T00:49:47;29;28;
77365;PMS5003;66430;50.182;11.704;2023-05-20T00:52:12;28;28;
77365;PMS5003;66430;50.182;11.704;2023-05-20T00:54:38;29;27;
77365;PMS5003;66430;50.182;11.704;2023-05-20T00:57:03;37;34;
77365;PMS5003;66430;50.182;11.704;2023-05-20T00:59:28;37;34;
77365;PMS5003;66430;50.182;11.704;2023-05-20T01:01:56;32;30;
77365;PMS5003;66430;50.182;11.704;2023-05-20T01:04:20;31;30;
77365;PMS5003;66430;50.182;11.704;2023-05-20T01:06:45;33;29;
77365;PMS5003;66430;50.182;11.704;2023-05-20T01:09:11;34;30;
77365;PMS5003;66430;50.182;11.704;2023-05-20T01:11:37;31;28;
77365;PMS5003;66430;50.182;11.704;2023-05-20T01:14:02;36;35;
77365;PMS5003;66430;50.182;11.704;2023-05-20T01:16:28;30;29;
77365;PMS5003;66430;50.182;11.704;2023-05-20T01:18:54;31;31;
77365;PMS5003;66430;50.182;11.704;2023-05-20T01:21:18;32;29;
77365;PMS5003;66430;50.182;11.704;2023-05-20T01:23:43;33;31;
77365;PMS5003;66430;50.182;11.704;2023-05-20T01:26:09;34;31;
77365;PMS5003;66430;50.182;11.704;2023-05-20T01:28:34;33;32;
77365;PMS5003;66430;50.182;11.704;2023-05-20T01:30:59;38;37;
77365;PMS5003;66430;50.182;11.704;2023-05-20T01:33:25;39;37;
77365;PMS5003;66430;50.182;11.704;2023-05-20T01:35:50;37;37;
77365;PMS5003;66430;50.182;11.704;2023-05-20T01:38:15;38;35;
77365;PMS5003;66430;50.182;11.704;2023-05-20T01:40:41;34;32;
77365;PMS5003;66430;50.182;11.704;2023-05-20T01:43:07;37;33;
77365;PMS5003;66430;50.182;11.704;2023-05-20T01:45:34;43;37;
77365;PMS5003;66430;50.182;11.704;2023-05-20T01:47:57;40;37;
77365;PMS5003;66430;50.182;11.704;2023-05-20T01:50:23;31;30;
77365;PMS5003;66430;50.182;11.704;2023-05-20T01:52:49;36;32;
77365;PMS5003;66430;50.182;11.704;2023-05-20T01:55:13;38;35;
77365;PMS5003;66430;50.182;11.704;2023-05-20T01:57:39;34;33;
77365;PMS5003;66430;50.182;11.704;2023-05-20T02:00:06;31;29;
77365;PMS5003;66430;50.182;11.704;2023-05-20T02:02:30;35;33;
77365;PMS5003;66430;50.182;11.704;2023-05-20T02:04:56;39;37;
77365;PMS5003;66430;50.182;11.704;2023-05-20T02:07:21;38;34;
77365;PMS5003;66430;50.182;11.704;2023-05-20T02:09:46;35;33;
77365;PMS5003;66430;50.182;11.704;2023-05-20T02:12:12;40;36;
77365;PMS5003;66430;50.182;11.704;2023-05-20T02:14:37;29;28;
77365;PMS5003;66430;50.182;11.704;2023-05-20T02:17:02;41;39;
77365;PMS5003;66430;50.182;11.704;2023-05-20T02:19:28;36;32;
77365;PMS5003;66430;50.182;11.704;2023-05-20T02:21:53;40;37;
77365;PMS5003;66430;50.182;11.704;2023-05-20T02:24:19;39;36;
77365;PMS5003;66430;50.182;11.704;2023-05-20T02:26:45;34;33;
77365;PMS5003;66430;50.182;11.704;2023-05-20T02:29:10;43;42;
77365;PMS5003;66430;50.182;11.704;2023-05-20T02:31:35;40;37;
77365;PMS5003;66430;50.182;11.704;2023-05-20T02:34:01;40;40;
77365;PMS5003;66430;50.182;11.704;2023-05-20T02:36:26;37;36;
77365;PMS5003;66430;50.182;11.704;2023-05-20T02:38:52;35;34;
77365;PMS5003;66430;50.182;11.704;2023-05-20T02:41:17;37;35;
77365;PMS5003;66430;50.182;11.704;2023-05-20T02:43:48;39;38;
77365;PMS5003;66430;50.182;11.704;2023-05-20T02:46:08;32;32;
77365;PMS5003;66430;50.182;11.704;2023-05-20T02:48:35;40;37;
77365;PMS5003;66430;50.182;11.704;2023-05-20T02:50:59;36;36;
77365;PMS5003;66430;50.182;11.704;2023-05-20T02:53:25;38;36;
77365;PMS5003;66430;50.182;11.704;2023-05-20T02:55:51;39;37;
77365;PMS5003;66430;50.182;11.704;2023-05-20T02:58:16;37;36;
77365;PMS5003;66430;50.182;11.704;2023-05-20T03:00:42;39;38;
77365;PMS5003;66430;50.182;11.704;2023-05-20T03:03:08;45;41;
77365;PMS5003;66430;50.182;11.704;2023-05-20T03:05:33;35;31;
77365;PMS5003;66430;50.182;11.704;2023-05-20T03:07:59;37;36;
77365;PMS5003;66430;50.182;11.704;2023-05-20T03:10:24;32;31;
77365;PMS5003;66430;50.182;11.704;2023-05-20T03:12:49;41;39;
77365;PMS5003;66430;50.182;11.704;2023-05-20T03:15:15;37;36;
77365;PMS5003;66430;50.182;11.704;2023-05-20T03:17:40;48;46;
77365;PMS5003;66430;50.182;11.704;2023-05-20T03:20:06;36;34;
77365;PMS5003;66430;50.182;11.704;2023-05-20T03:22:31;39;39;
77365;PMS5003;66430;50.182;11.704;2023-05-20T03:24:56;38;31;
77365;PMS5003;66430;50.182;11.704;2023-05-20T03:27:22;41;37;
77365;PMS5003;66430;50.182;11.704;2023-05-20T03:29:47;37;36;
77365;PMS5003;66430;50.182;11.704;2023-05-20T03:32:12;38;36;
77365;PMS5003;66430;50.182;11.704;2023-05-20T03:34:38;34;34;
77365;PMS5003;66430;50.182;11.704;2023-05-20T03:37:03;41;39;
77365;PMS5003;66430;50.182;11.704;2023-05-20T03:39:29;43;40;
77365;PMS5003;66430;50.182;11.704;2023-05-20T03:41:54;37;35;
77365;PMS5003;66430;50.182;11.704;2023-05-20T03:44:21;37;36;
77365;PMS5003;66430;50.182;11.704;2023-05-20T03:46:46;36;32;
77365;PMS5003;66430;50.182;11.704;2023-05-20T03:49:11;37;34;
77365;PMS5003;66430;50.182;11.704;2023-05-20T03:51:37;36;33;
77365;PMS5003;66430;50.182;11.704;2023-05-20T03:54:01;33;33;
77365;PMS5003;66430;50.182;11.704;2023-05-20T03:56:28;31;30;
77365;PMS5003;66430;50.182;11.704;2023-05-20T03:58:52;40;35;
77365;PMS5003;66430;50.182;11.704;2023-05-20T04:01:17;34;32;
77365;PMS5003;66430;50.182;11.704;2023-05-20T04:03:43;41;38;
77365;PMS5003;66430;50.182;11.704;2023-05-20T04:06:09;34;33;
77365;PMS5003;66430;50.182;11.704;2023-05-20T04:08:35;40;38;
77365;PMS5003;66430;50.182;11.704;2023-05-20T04:11:01;34;30;
77365;PMS5003;66430;50.182;11.704;2023-05-20T04:13:26;34;33;
77365;PMS5003;66430;50.182;11.704;2023-05-20T04:15:51;38;36;
77365;PMS5003;66430;50.182;11.704;2023-05-20T04:18:16;36;34;
77365;PMS5003;66430;50.182;11.704;2023-05-20T04:20:41;37;37;
77365;PMS5003;66430;50.182;11.704;2023-05-20T04:23:07;37;37;
77365;PMS5003;66430;50.182;11.704;2023-05-20T04:25:33;30;30;
77365;PMS5003;66430;50.182;11.704;2023-05-20T04:27:58;37;37;
77365;PMS5003;66430;50.182;11.704;2023-05-20T04:30:24;34;31;
77365;PMS5003;66430;50.182;11.704;2023-05-20T04:32:49;43;40;
77365;PMS5003;66430;50.182;11.704;2023-05-20T04:35:16;34;32;
77365;PMS5003;66430;50.182;11.704;2023-05-20T04:37:41;26;26;
77365;PMS5003;66430;50.182;11.704;2023-05-20T04:40:06;37;37;
77365;PMS5003;66430;50.182;11.704;2023-05-20T04:42:32;37;36;
77365;PMS5003;66430;50.182;11.704;2023-05-20T04:44:57;37;37;
77365;PMS5003;66430;50.182;11.704;2023-05-20T04:47:24;40;40;
77365;PMS5003;66430;50.182;11.704;2023-05-20T04:49:48;38;37;
77365;PMS5003;66430;50.182;11.704;2023-05-20T04:52:13;40;36;
77365;PMS5003;66430;50.182;11.704;2023-05-20T04:54:39;41;40;
77365;PMS5003;66430;50.182;11.704;2023-05-20T04:57:04;43;42;
77365;PMS5003;66430;50.182;11.704;2023-05-20T04:59:30;36;33;
77365;PMS5003;66430;50.182;11.704;2023-05-20T05:01:56;34;33;
77365;PMS5003;66430;50.182;11.704;2023-05-20T05:04:21;46;42;
77365;PMS5003;66430;50.182;11.704;2023-05-20T05:06:47;38;34;
77365;PMS5003;66430;50.182;11.704;2023-05-20T05:09:13;38;34;
77365;PMS5003;66430;50.182;11.704;2023-05-20T05:11:38;40;36;
77365;PMS5003;66430;50.182;11.704;2023-05-20T05:14:03;44;39;
77365;PMS5003;66430;50.182;11.704;2023-05-20T05:16:28;31;31;
77365;PMS5003;66430;50.182;11.704;2023-05-20T05:18:54;37;36;
77365;PMS5003;66430;50.182;11.704;2023-05-20T05:21:19;39;35;
77365;PMS5003;66430;50.182;11.704;2023-05-20T05:23:45;36;32;
77365;PMS5003;66430;50.182;11.704;2023-05-20T05:26:10;37;34;
77365;PMS5003;66430;50.182;11.704;2023-05-20T05:28:36;39;39;
77365;PMS5003;66430;50.182;11.704;2023-05-20T05:31:02;43;39;
77365;PMS5003;66430;50.182;11.704;2023-05-20T05:33:27;41;39;
77365;PMS5003;66430;50.182;11.704;2023-05-20T05:35:53;38;36;
77365;PMS5003;66430;50.182;11.704;2023-05-20T05:38:19;42;40;
77365;PMS5003;66430;50.182;11.704;2023-05-20T05:40:44;48;40;
77365;PMS5003;66430;50.182;11.704;2023-05-20T05:43:09;43;41;
77365;PMS5003;66430;50.182;11.704;2023-05-20T05:45:34;37;36;
77365;PMS5003;66430;50.182;11.704;2023-05-20T05:48:00;51;39;
77365;PMS5003;66430;50.182;11.704;2023-05-20T05:50:26;42;39;
77365;PMS5003;66430;50.182;11.704;2023-05-20T05:52:51;43;40;
77365;PMS5003;66430;50.182;11.704;2023-05-20T05:55:17;46;45;
77365;PMS5003;66430;50.182;11.704;2023-05-20T05:57:42;40;34;
77365;PMS5003;66430;50.182;11.704;2023-05-20T06:00:09;38;36;
77365;PMS5003;66430;50.182;11.704;2023-05-20T06:02:34;40;40;
77365;PMS5003;66430;50.182;11.704;2023-05-20T06:04:59;42;42;
77365;PMS5003;66430;50.182;11.704;2023-05-20T06:07:26;42;39;
77365;PMS5003;66430;50.182;11.704;2023-05-20T06:09:50;50;43;
77365;PMS5003;66430;50.182;11.704;2023-05-20T06:12:15;47;43;
77365;PMS5003;66430;50.182;11.704;2023-05-20T06:14:41;41;41;
77365;PMS5003;66430;50.182;11.704;2023-05-20T06:17:07;43;41;
77365;PMS5003;66430;50.182;11.704;2023-05-20T06:19:31;42;40;
77365;PMS5003;66430;50.182;11.704;2023-05-20T06:21:58;40;38;
77365;PMS5003;66430;50.182;11.704;2023-05-20T06:24:24;36;36;
77365;PMS5003;66430;50.182;11.704;2023-05-20T06:26:47;48;46;
77365;PMS5003;66430;50.182;11.704;2023-05-20T06:29:14;41;38;
77365;PMS5003;66430;50.182;11.704;2023-05-20T06:31:40;47;42;
77365;PMS5003;66430;50.182;11.704;2023-05-20T06:34:05;38;38;
77365;PMS5003;66430;50.182;11.704;2023-05-20T06:36:30;43;40;
77365;PMS5003;66430;50.182;11.704;2023-05-20T06:38:55;41;40;
77365;PMS5003;66430;50.182;11.704;2023-05-20T06:41:22;44;41;
77365;PMS5003;66430;50.182;11.704;2023-05-20T06:43:48;45;42;
77365;PMS5003;66430;50.182;11.704;2023-05-20T06:46:11;49;47;
77365;PMS5003;66430;50.182;11.704;2023-05-20T06:48:37;47;40;
77365;PMS5003;66430;50.182;11.704;2023-05-20T06:51:04;41;38;
77365;PMS5003;66430;50.182;11.704;2023-05-20T06:53:29;42;40;
77365;PMS5003;66430;50.182;11.704;2023-05-20T06:55:54;45;42;
77365;PMS5003;66430;50.182;11.704;2023-05-20T06:58:19;41;40;
77365;PMS5003;66430;50.182;11.704;2023-05-20T07:00:46;48;43;
77365;PMS5003;66430;50.182;11.704;2023-05-20T07:03:10;49;41;
77365;PMS5003;66430;50.182;11.704;2023-05-20T07:05:35;40;40;
77365;PMS5003;66430;50.182;11.704;2023-05-20T07:08:00;49;46;
77365;PMS5003;66430;50.182;11.704;2023-05-20T07:10:26;45;43;
77365;PMS5003;66430;50.182;11.704;2023-05-20T07:12:51;43;37;
77365;PMS5003;66430;50.182;11.704;2023-05-20T07:15:16;44;40;
77365;PMS5003;66430;50.182;11.704;2023-05-20T07:17:42;43;41;
77365;PMS5003;66430;50.182;11.704;2023-05-20T07:20:08;42;39;
77365;PMS5003;66430;50.182;11.704;2023-05-20T07:22:33;45;42;
77365;PMS5003;66430;50.182;11.704;2023-05-20T07:24:59;45;41;
77365;PMS5003;66430;50.182;11.704;2023-05-20T07:27:25;41;39;
77365;PMS5003;66430;50.182;11.704;2023-05-20T07:29:49;37;37;
77365;PMS5003;66430;50.182;11.704;2023-05-20T07:32:15;43;42;
77365;PMS5003;66430;50.182;11.704;2023-05-20T07:34:41;46;39;
77365;PMS5003;66430;50.182;11.704;2023-05-20T07:37:06;36;34;
77365;PMS5003;66430;50.182;11.704;2023-05-20T07:39:32;45;42;
77365;PMS5003;66430;50.182;11.704;2023-05-20T07:41:57;31;30;
77365;PMS5003;66430;50.182;11.704;2023-05-20T07:44:24;32;32;
77365;PMS5003;66430;50.182;11.704;2023-05-20T07:46:48;36;33;
77365;PMS5003;66430;50.182;11.704;2023-05-20T07:49:16;30;30;
77365;PMS5003;66430;50.182;11.704;2023-05-20T07:51:39;44;40;
77365;PMS5003;66430;50.182;11.704;2023-05-20T07:54:05;39;35;
77365;PMS5003;66430;50.182;11.704;2023-05-20T07:56:31;32;32;
77365;PMS5003;66430;50.182;11.704;2023-05-20T07:58:57;43;40;
77365;PMS5003;66430;50.182;11.704;2023-05-20T08:01:22;30;30;
77365;PMS5003;66430;50.182;11.704;2023-05-20T08:03:48;41;37;
77365;PMS5003;66430;50.182;11.704;2023-05-20T08:06:12;39;35;
77365;PMS5003;66430;50.182;11.704;2023-05-20T08:08:38;35;33;
77365;PMS5003;66430;50.182;11.704;2023-05-20T08:11:04;37;33;
77365;PMS5003;66430;50.182;11.704;2023-05-20T08:13:29;35;33;
77365;PMS5003;66430;50.182;11.704;2023-05-20T08:15:55;42;40;
77365;PMS5003;66430;50.182;11.704;2023-05-20T08:18:19;40;36;
77365;PMS5003;66430;50.182;11.704;2023-05-20T08:20:45;35;35;
77365;PMS5003;66430;50.182;11.704;2023-05-20T08:23:10;37;33;
77365;PMS5003;66430;50.182;11.704;2023-05-20T08:25:36;39;36;
77365;PMS5003;66430;50.182;11.704;2023-05-20T08:28:02;29;28;
77365;PMS5003;66430;50.182;11.704;2023-05-20T08:30:26;34;34;
77365;PMS5003;66430;50.182;11.704;2023-05-20T08:32:52;36;36;
77365;PMS5003;66430;50.182;11.704;2023-05-20T08:35:17;36;34;
77365;PMS5003;66430;50.182;11.704;2023-05-20T08:37:43;33;29;
77365;PMS5003;66430;50.182;11.704;2023-05-20T08:40:09;29;27;
77365;PMS5003;66430;50.182;11.704;2023-05-20T08:42:33;32;31;
77365;PMS5003;66430;50.182;11.704;2023-05-20T08:44:59;33;33;
77365;PMS5003;66430;50.182;11.704;2023-05-20T08:47:25;34;33;
77365;PMS5003;66430;50.182;11.704;2023-05-20T08:49:50;32;31;
77365;PMS5003;66430;50.182;11.704;2023-05-20T08:52:17;32;30;
77365;PMS5003;66430;50.182;11.704;2023-05-20T08:54:42;35;32;
77365;PMS5003;66430;50.182;11.704;2023-05-20T08:57:07;36;33;
77365;PMS5003;66430;50.182;11.704;2023-05-20T08:59:32;32;32;
77365;PMS5003;66430;50.182;11.704;2023-05-20T09:01:57;36;35;
77365;PMS5003;66430;50.182;11.704;2023-05-20T09:04:24;43;38;
77365;PMS5003;66430;50.182;11.704;2023-05-20T09:06:49;38;36;
77365;PMS5003;66430;50.182;11.704;2023-05-20T09:09:15;35;34;
77365;PMS5003;66430;50.182;11.704;2023-05-20T09:11:40;33;32;
77365;PMS5003;66430;50.182;11.704;2023-05-20T09:14:04;34;34;
77365;PMS5003;66430;50.182;11.704;2023-05-20T09:16:29;36;34;
77365;PMS5003;66430;50.182;11.704;2023-05-20T09:18:55;35;31;
77365;PMS5003;66430;50.182;11.704;2023-05-20T09:21:24;36;34;
77365;PMS5003;66430;50.182;11.704;2023-05-20T09:23:46;36;33;
77365;PMS5003;66430;50.182;11.704;2023-05-20T09:26:10;36;34;
77365;PMS5003;66430;50.182;11.704;2023-05-20T09:28:36;41;39;
77365;PMS5003;66430;50.182;11.704;2023-05-20T09:31:01;36;34;
77365;PMS5003;66430;50.182;11.704;2023-05-20T09:33:28;33;30;
77365;PMS5003;66430;50.182;11.704;2023-05-20T09:35:52;36;36;
77365;PMS5003;66430;50.182;11.704;2023-05-20T09:38:17;36;32;
77365;PMS5003;66430;50.182;11.704;2023-05-20T09:40:43;37;33;
77365;PMS5003;66430;50.182;11.704;2023-05-20T09:43:09;37;34;
77365;PMS5003;66430;50.182;11.704;2023-05-20T09:45:36;38;33;
77365;PMS5003;66430;50.182;11.704;2023-05-20T09:48:00;33;31;
77365;PMS5003;66430;50.182;11.704;2023-05-20T09:50:25;30;29;
77365;PMS5003;66430;50.182;11.704;2023-05-20T09:52:51;39;39;
77365;PMS5003;66430;50.182;11.704;2023-05-20T09:55:16;39;34;
77365;PMS5003;66430;50.182;11.704;2023-05-20T09:57:41;39;37;
77365;PMS5003;66430;50.182;11.704;2023-05-20T10:00:07;32;28;
77365;PMS5003;66430;50.182;11.704;2023-05-20T10:02:32;33;32;
77365;PMS5003;66430;50.182;11.704;2023-05-20T10:04:58;35;32;
77365;PMS5003;66430;50.182;11.704;2023-05-20T10:07:27;35;33;
77365;PMS5003;66430;50.182;11.704;2023-05-20T10:09:51;32;30;
77365;PMS5003;66430;50.182;11.704;2023-05-20T10:12:15;34;31;
77365;PMS5003;66430;50.182;11.704;2023-05-20T10:14:42;38;36;
77365;PMS5003;66430;50.182;11.704;2023-05-20T10:17:06;30;29;
77365;PMS5003;66430;50.182;11.704;2023-05-20T10:19:31;27;25;
77365;PMS5003;66430;50.182;11.704;2023-05-20T10:21:56;29;28;
77365;PMS5003;66430;50.182;11.704;2023-05-20T10:24:27;30;30;
77365;PMS5003;66430;50.182;11.704;2023-05-20T10:26:53;35;35;
77365;PMS5003;66430;50.182;11.704;2023-05-20T10:29:14;35;31;
77365;PMS5003;66430;50.182;11.704;2023-05-20T10:31:42;37;36;
77365;PMS5003;66430;50.182;11.704;2023-05-20T10:34:02;32;31;
77365;PMS5003;66430;50.182;11.704;2023-05-20T10:36:31;31;29;
77365;PMS5003;66430;50.182;11.704;2023-05-20T10:38:53;31;29;
77365;PMS5003;66430;50.182;11.704;2023-05-20T10:41:19;35;31;
77365;PMS5003;66430;50.182;11.704;2023-05-20T10:43:44;30;30;
77365;PMS5003;66430;50.182;11.704;2023-05-20T10:46:16;35;31;
77365;PMS5003;66430;50.182;11.704;2023-05-20T10:48:34;33;30;
77365;PMS5003;66430;50.182;11.704;2023-05-20T10:51:00;33;31;
77365;PMS5003;66430;50.182;11.704;2023-05-20T10:53:26;31;31;
77365;PMS5003;66430;50.182;11.704;2023-05-20T10:55:51;28;28;
77365;PMS5003;66430;50.182;11.704;2023-05-20T10:58:15;30;29;
77365;PMS5003;66430;50.182;11.704;2023-05-20T11:00:46;36;34;
77365;PMS5003;66430;50.182;11.704;2023-05-20T11:03:06;30;28;
77365;PMS5003;66430;50.182;11.704;2023-05-20T11:05:32;29;26;
77365;PMS5003;66430;50.182;11.704;2023-05-20T11:08:00;27;26;
77365;PMS5003;66430;50.182;11.704;2023-05-20T11:10:22;27;26;
77365;PMS5003;66430;50.182;11.704;2023-05-20T11:12:47;26;23;
77365;PMS5003;66430;50.182;11.704;2023-05-20T11:15:13;29;27;
77365;PMS5003;66430;50.182;11.704;2023-05-20T11:20:04;32;32;
77365;PMS5003;66430;50.182;11.704;2023-05-20T11:22:29;28;27;
77365;PMS5003;66430;50.182;11.704;2023-05-20T11:24:55;31;27;
77365;PMS5003;66430;50.182;11.704;2023-05-20T11:27:20;28;26;
77365;PMS5003;66430;50.182;11.704;2023-05-20T11:29:48;24;24;
77365;PMS5003;66430;50.182;11.704;2023-05-20T11:32:10;27;25;
77365;PMS5003;66430;50.182;11.704;2023-05-20T11:34:36;32;31;
77365;PMS5003;66430;50.182;11.704;2023-05-20T11:37:01;23;21;
77365;PMS5003;66430;50.182;11.704;2023-05-20T11:39:28;25;22;
77365;PMS5003;66430;50.182;11.704;2023-05-20T11:41:52;30;27;
77365;PMS5003;66430;50.182;11.704;2023-05-20T11:44:18;23;22;
77365;PMS5003;66430;50.182;11.704;2023-05-20T11:46:44;31;28;
77365;PMS5003;66430;50.182;11.704;2023-05-20T11:49:09;25;25;
77365;PMS5003;66430;50.182;11.704;2023-05-20T11:51:36;25;24;
77365;PMS5003;66430;50.182;11.704;2023-05-20T11:54:02;27;26;
77365;PMS5003;66430;50.182;11.704;2023-05-20T11:56:25;28;28;
77365;PMS5003;66430;50.182;11.704;2023-05-20T11:58:50;28;25;
77365;PMS5003;66430;50.182;11.704;2023-05-20T12:01:15;22;22;
77365;PMS5003;66430;50.182;11.704;2023-05-20T12:03:41;25;23;
77365;PMS5003;66430;50.182;11.704;2023-05-20T12:06:06;23;23;
77365;PMS5003;66430;50.182;11.704;2023-05-20T12:08:31;24;24;
77365;PMS5003;66430;50.182;11.704;2023-05-20T12:10:56;23;23;
77365;PMS5003;66430;50.182;11.704;2023-05-20T12:13:22;24;23;
77365;PMS5003;66430;50.182;11.704;2023-05-20T12:15:49;26;24;
77365;PMS5003;66430;50.182;11.704;2023-05-20T12:18:13;21;20;
77365;PMS5003;66430;50.182;11.704;2023-05-20T12:20:38;21;21;
77365;PMS5003;66430;50.182;11.704;2023-05-20T12:23:03;23;22;
77365;PMS5003;66430;50.182;11.704;2023-05-20T12:25:29;24;22;
77365;PMS5003;66430;50.182;11.704;2023-05-20T12:27:54;24;24;
77365;PMS5003;66430;50.182;11.704;2023-05-20T12:30:20;21;21;
77365;PMS5003;66430;50.182;11.704;2023-05-20T12:32:45;29;29;
77365;PMS5003;66430;50.182;11.704;2023-05-20T12:35:10;24;24;
77365;PMS5003;66430;50.182;11.704;2023-05-20T12:37:36;24;22;
77365;PMS5003;66430;50.182;11.704;2023-05-20T12:40:01;30;27;
77365;PMS5003;66430;50.182;11.704;2023-05-20T12:42:26;21;21;
77365;PMS5003;66430;50.182;11.704;2023-05-20T12:44:52;24;22;
77365;PMS5003;66430;50.182;11.704;2023-05-20T12:47:18;24;23;
77365;PMS5003;66430;50.182;11.704;2023-05-20T12:49:42;31;29;
77365;PMS5003;66430;50.182;11.704;2023-05-20T12:52:08;26;22;
77365;PMS5003;66430;50.182;11.704;2023-05-20T12:54:34;26;24;
77365;PMS5003;66430;50.182;11.704;2023-05-20T12:56:59;21;19;
77365;PMS5003;66430;50.182;11.704;2023-05-20T12:59:24;23;21;
77365;PMS5003;66430;50.182;11.704;2023-05-20T13:01:49;19;19;
77365;PMS5003;66430;50.182;11.704;2023-05-20T13:04:15;21;21;
77365;PMS5003;66430;50.182;11.704;2023-05-20T13:06:39;22;22;
77365;PMS5003;66430;50.182;11.704;2023-05-20T13:09:05;25;24;
77365;PMS5003;66430;50.182;11.704;2023-05-20T13:11:30;26;24;
77365;PMS5003;66430;50.182;11.704;2023-05-20T13:13:55;24;23;
77365;PMS5003;66430;50.182;11.704;2023-05-20T13:16:21;26;24;
77365;PMS5003;66430;50.182;11.704;2023-05-20T13:18:46;24;24;
77365;PMS5003;66430;50.182;11.704;2023-05-20T13:21:11;24;24;
77365;PMS5003;66430;50.182;11.704;2023-05-20T13:23:37;24;23;
77365;PMS5003;66430;50.182;11.704;2023-05-20T13:26:02;23;21;
77365;PMS5003;66430;50.182;11.704;2023-05-20T13:28:28;23;21;
77365;PMS5003;66430;50.182;11.704;2023-05-20T13:30:53;25;25;
77365;PMS5003;66430;50.182;11.704;2023-05-20T13:33:18;22;21;
77365;PMS5003;66430;50.182;11.704;2023-05-20T13:35:44;28;25;
77365;PMS5003;66430;50.182;11.704;2023-05-20T13:38:09;21;21;
77365;PMS5003;66430;50.182;11.704;2023-05-20T13:40:35;24;23;
77365;PMS5003;66430;50.182;11.704;2023-05-20T13:43:00;23;23;
77365;PMS5003;66430;50.182;11.704;2023-05-20T13:45:26;28;27;
77365;PMS5003;66430;50.182;11.704;2023-05-20T13:47:52;20;20;
77365;PMS5003;66430;50.182;11.704;2023-05-20T13:50:18;20;20;
77365;PMS5003;66430;50.182;11.704;2023-05-20T13:52:45;25;21;
77365;PMS5003;66430;50.182;11.704;2023-05-20T13:55:09;27;27;
77365;PMS5003;66430;50.182;11.704;2023-05-20T13:57:35;21;20;
77365;PMS5003;66430;50.182;11.704;2023-05-20T14:00:02;23;23;
77365;PMS5003;66430;50.182;11.704;2023-05-20T14:02:26;23;22;
77365;PMS5003;66430;50.182;11.704;2023-05-20T14:04:52;18;18;
77365;PMS5003;66430;50.182;11.704;2023-05-20T14:07:17;22;22;
77365;PMS5003;66430;50.182;11.704;2023-05-20T14:09:43;20;19;
77365;PMS5003;66430;50.182;11.704;2023-05-20T14:12:08;21;20;
77365;PMS5003;66430;50.182;11.704;2023-05-20T14:14:34;19;19;
77365;PMS5003;66430;50.182;11.704;2023-05-20T14:17:00;25;22;
77365;PMS5003;66430;50.182;11.704;2023-05-20T14:19:25;24;23;
77365;PMS5003;66430;50.182;11.704;2023-05-20T14:21:52;21;20;
77365;PMS5003;66430;50.182;11.704;2023-05-20T14:24:16;21;20;
77365;PMS5003;66430;50.182;11.704;2023-05-20T14:26:41;20;20;
77365;PMS5003;66430;50.182;11.704;2023-05-20T14:29:07;21;20;
77365;PMS5003;66430;50.182;11.704;2023-05-20T14:31:32;22;21;
77365;PMS5003;66430;50.182;11.704;2023-05-20T14:33:58;20;20;
77365;PMS5003;66430;50.182;11.704;2023-05-20T14:36:24;21;21;
77365;PMS5003;66430;50.182;11.704;2023-05-20T14:38:48;26;23;
77365;PMS5003;66430;50.182;11.704;2023-05-20T14:41:14;26;24;
77365;PMS5003;66430;50.182;11.704;2023-05-20T14:43:39;22;22;
77365;PMS5003;66430;50.182;11.704;2023-05-20T14:46:05;23;23;
77365;PMS5003;66430;50.182;11.704;2023-05-20T14:48:30;23;23;
77365;PMS5003;66430;50.182;11.704;2023-05-20T14:50:56;19;18;
77365;PMS5003;66430;50.182;11.704;2023-05-20T14:53:21;20;20;
77365;PMS5003;66430;50.182;11.704;2023-05-20T14:55:46;23;21;
77365;PMS5003;66430;50.182;11.704;2023-05-20T14:58:12;22;21;
77365;PMS5003;66430;50.182;11.704;2023-05-20T15:00:37;25;21;
77365;PMS5003;66430;50.182;11.704;2023-05-20T15:03:03;17;17;
77365;PMS5003;66430;50.182;11.704;2023-05-20T15:05:29;21;20;
77365;PMS5003;66430;50.182;11.704;2023-05-20T15:07:54;21;19;
77365;PMS5003;66430;50.182;11.704;2023-05-20T15:10:19;18;18;
77365;PMS5003;66430;50.182;11.704;2023-05-20T15:12:45;18;18;
77365;PMS5003;66430;50.182;11.704;2023-05-20T15:15:11;22;21;
77365;PMS5003;66430;50.182;11.704;2023-05-20T15:17:36;18;18;
77365;PMS5003;66430;50.182;11.704;2023-05-20T15:20:02;18;17;
77365;PMS5003;66430;50.182;11.704;2023-05-20T15:22:27;20;19;
77365;PMS5003;66430;50.182;11.704;2023-05-20T15:24:52;21;18;
77365;PMS5003;66430;50.182;11.704;2023-05-20T15:27:17;18;18;
77365;PMS5003;66430;50.182;11.704;2023-05-20T15:29:45;20;20;
77365;PMS5003;66430;50.182;11.704;2023-05-20T15:32:14;20;20;
77365;PMS5003;66430;50.182;11.704;2023-05-20T15:34:35;20;18;
77365;PMS5003;66430;50.182;11.704;2023-05-20T15:37:00;20;20;
77365;PMS5003;66430;50.182;11.704;2023-05-20T15:39:26;17;16;
77365;PMS5003;66430;50.182;11.704;2023-05-20T15:41:51;20;19;
77365;PMS5003;66430;50.182;11.704;2023-05-20T15:44:18;20;20;
77365;PMS5003;66430;50.182;11.704;2023-05-20T15:46:42;19;18;
77365;PMS5003;66430;50.182;11.704;2023-05-20T15:49:07;18;18;
77365;PMS5003;66430;50.182;11.704;2023-05-20T15:51:33;18;17;